Time;durP1;ratioP1;P1;durP2;ratioP2;P2;SDS_P1;SDS_P2;PMS_P1;PMS_P2;Temp;Humidity;BMP_temperature;BMP_pressure;BME280_temperature;BME280_humidity;BME280_pressure;Samples;Min_cycle;Max_cycle;Signal;HPM_P1;HPM_P2
2021/05/30 00:02:28;;;;;;;4.45;3.50;;;;;;;11.22;63.54;100570.46;153858;1094;103107;-69
2021/05/30 00:05:33;;;;;;;5.80;3.50;;;;;;;11.24;63.92;100573.82;153815;1101;103492;-69
2021/05/30 00:08:37;;;;;;;6.25;3.50;;;;;;;11.25;64.01;100575.48;153839;1101;103582;-69
2021/05/30 00:11:41;;;;;;;7.33;4.30;;;;;;;11.29;63.76;100574.19;153856;1101;103139;-70
2021/05/30 00:14:45;;;;;;;4.70;3.70;;;;;;;11.36;63.42;100572.61;153817;1096;103203;-71
2021/05/30 00:17:48;;;;;;;6.90;3.97;;;;;;;11.33;63.26;100578.23;153819;1101;103091;-71
2021/05/30 00:20:52;;;;;;;5.90;3.85;;;;;;;11.26;63.59;100574.52;153878;1101;103341;-71
2021/05/30 00:23:57;;;;;;;4.70;3.80;;;;;;;11.20;64.08;100577.75;153885;1101;103250;-71
2021/05/30 00:27:01;;;;;;;4.50;3.70;;;;;;;11.21;63.45;100576.78;153855;1096;103158;-70
2021/05/30 00:30:07;;;;;;;5.63;3.93;;;;;;;11.16;63.82;100582.58;153870;1096;103129;-72
2021/05/30 00:33:11;;;;;;;6.30;4.20;;;;;;;11.00;63.95;100579.70;154008;1096;103147;-71
2021/05/30 00:36:14;;;;;;;5.93;3.80;;;;;;;10.88;64.32;100589.73;154009;1095;103556;-71
2021/05/30 00:39:18;;;;;;;5.20;3.53;;;;;;;10.84;63.95;100583.01;153827;1094;103238;-71
2021/05/30 00:42:22;;;;;;;6.10;3.90;;;;;;;10.77;63.93;100577.40;153818;1101;103099;-73
2021/05/30 00:45:26;;;;;;;6.67;3.70;;;;;;;10.74;63.88;100579.52;153890;1101;103191;-71
2021/05/30 00:48:30;;;;;;;4.70;3.90;;;;;;;10.74;64.43;100582.19;153866;1101;103163;-70
2021/05/30 00:51:33;;;;;;;5.40;3.90;;;;;;;10.72;64.26;100574.34;153875;1101;103116;-74
2021/05/30 00:54:38;;;;;;;4.60;3.77;;;;;;;10.64;64.16;100581.38;153985;1096;103121;-71
2021/05/30 00:57:42;;;;;;;6.00;4.17;;;;;;;10.53;64.97;100583.25;153990;1101;103187;-75
2021/05/30 01:00:46;;;;;;;4.73;4.00;;;;;;;10.41;64.68;100582.59;153957;1096;103141;-73
2021/05/30 01:03:49;;;;;;;4.73;3.90;;;;;;;10.28;64.36;100581.19;153921;1101;103147;-71
2021/05/30 01:06:55;;;;;;;5.90;4.00;;;;;;;10.20;65.15;100588.06;153868;1101;103291;-71
2021/05/30 01:10:18;;;;;;;7.17;4.10;;;;;;;10.16;65.09;100589.34;153847;1101;103554;-73
2021/05/30 01:13:23;;;;;;;5.40;3.90;;;;;;;10.18;64.89;100590.03;153904;1096;103470;-70
2021/05/30 01:16:28;;;;;;;5.80;3.87;;;;;;;10.20;65.26;100596.06;153829;1096;103637;-70
2021/05/30 01:19:34;;;;;;;6.33;3.90;;;;;;;10.20;65.54;100589.90;153875;1101;103138;-70
2021/05/30 01:22:40;;;;;;;4.87;3.83;;;;;;;10.22;65.47;100588.77;153825;1101;103527;-69
2021/05/30 01:25:44;;;;;;;5.50;4.00;;;;;;;10.23;65.48;100594.92;153856;1101;103611;-68
2021/05/30 01:28:48;;;;;;;4.40;3.75;;;;;;;10.22;65.32;100591.42;153919;1095;103224;-71
2021/05/30 01:31:52;;;;;;;4.37;3.83;;;;;;;10.25;65.29;100584.13;153864;1101;103228;-69
2021/05/30 01:34:55;;;;;;;5.50;3.97;;;;;;;10.22;65.01;100594.09;153786;1096;103118;-70
2021/05/30 01:37:59;;;;;;;5.00;4.00;;;;;;;10.19;65.91;100589.03;153824;1094;103187;-70
2021/05/30 01:41:04;;;;;;;4.60;3.63;;;;;;;10.12;65.22;100585.27;153863;1101;103280;-70
2021/05/30 01:44:08;;;;;;;4.70;3.50;;;;;;;10.09;65.34;100587.38;153877;1101;103148;-70
2021/05/30 01:47:11;;;;;;;4.27;3.30;;;;;;;10.03;65.91;100599.45;153938;1101;103193;-70
2021/05/30 01:50:21;;;;;;;4.37;3.43;;;;;;;9.98;65.47;100599.85;153888;1096;103217;-69
2021/05/30 01:53:32;;;;;;;4.60;3.77;;;;;;;9.99;65.64;100598.05;153873;1096;103114;-70
2021/05/30 01:59:58;;;;;;;4.50;3.40;;;;;;;9.95;65.88;100607.28;153909;1096;103200;-70
2021/05/30 02:03:02;;;;;;;5.23;3.53;;;;;;;9.95;65.64;100609.95;153820;1101;103092;-69
2021/05/30 02:06:07;;;;;;;4.40;3.53;;;;;;;9.94;65.23;100603.78;153855;1101;103270;-71
2021/05/30 02:09:11;;;;;;;5.95;3.80;;;;;;;9.99;65.56;100600.72;153950;1101;103560;-69
2021/05/30 02:12:15;;;;;;;6.13;3.37;;;;;;;10.02;65.91;100603.08;153813;1096;103209;-71
2021/05/30 02:15:21;;;;;;;4.97;3.03;;;;;;;10.02;65.75;100608.41;153846;1101;103561;-69
2021/05/30 02:18:24;;;;;;;3.90;2.70;;;;;;;9.99;65.67;100609.55;153886;1101;103485;-70
2021/05/30 02:21:40;;;;;;;3.93;3.13;;;;;;;9.98;65.51;100607.85;153793;1101;103142;-70
2021/05/30 02:24:45;;;;;;;4.70;3.23;;;;;;;9.96;65.79;100604.48;153823;1101;103576;-69
2021/05/30 02:27:50;;;;;;;4.77;3.03;;;;;;;9.92;65.27;100607.59;153877;1096;103568;-66
2021/05/30 02:30:54;;;;;;;4.03;3.03;;;;;;;9.89;65.59;100613.18;153930;1101;103141;-67
2021/05/30 02:33:57;;;;;;;3.93;3.17;;;;;;;9.85;65.74;100607.28;153858;1101;103199;-71
2021/05/30 02:37:02;;;;;;;4.05;3.30;;;;;;;9.79;65.90;100608.68;153795;1101;103121;-71
2021/05/30 02:40:08;;;;;;;3.87;3.23;;;;;;;9.71;65.87;100608.55;153842;1101;103139;-71
2021/05/30 02:43:12;;;;;;;4.93;3.43;;;;;;;9.70;65.18;100617.53;153812;1096;103179;-72
2021/05/30 02:46:15;;;;;;;5.87;3.67;;;;;;;9.74;66.15;100626.09;153861;1094;103150;-71
2021/05/30 02:49:20;;;;;;;4.73;3.33;;;;;;;9.72;66.14;100612.91;153982;1101;103216;-71
2021/05/30 02:52:23;;;;;;;4.80;3.03;;;;;;;9.74;65.98;100616.27;154014;1101;103198;-71
2021/05/30 02:55:27;;;;;;;5.70;3.70;;;;;;;9.75;66.02;100623.27;153842;1101;103133;-70
2021/05/30 02:58:31;;;;;;;6.57;2.97;;;;;;;9.78;66.14;100628.34;153785;1101;103201;-71
2021/05/30 03:01:35;;;;;;;4.27;3.33;;;;;;;9.80;66.61;100622.88;153971;1096;103673;-73
2021/05/30 03:04:38;;;;;;;4.87;3.20;;;;;;;9.82;66.20;100626.23;153791;1101;103190;-73
2021/05/30 03:07:43;;;;;;;4.63;3.47;;;;;;;9.89;66.30;100624.71;153777;1096;103227;-70
2021/05/30 03:10:47;;;;;;;4.07;3.60;;;;;;;9.90;66.06;100639.70;153847;1096;103189;-70
2021/05/30 03:13:52;;;;;;;5.33;3.50;;;;;;;9.88;66.43;100638.17;153824;1101;103282;-70
2021/05/30 03:16:55;;;;;;;4.10;3.43;;;;;;;9.80;66.48;100631.70;153863;1101;103224;-69
2021/05/30 03:19:59;;;;;;;5.63;3.70;;;;;;;9.80;66.67;100636.20;153820;1101;103190;-70
2021/05/30 03:23:03;;;;;;;6.03;3.27;;;;;;;9.86;66.58;100626.81;153787;1101;103232;-71
2021/05/30 03:26:06;;;;;;;3.87;2.97;;;;;;;9.91;66.85;100637.88;153872;1101;103115;-70
2021/05/30 03:29:10;;;;;;;4.53;3.53;;;;;;;9.92;66.71;100644.91;153777;1101;103268;-70
2021/05/30 03:32:14;;;;;;;4.70;3.50;;;;;;;9.88;66.40;100639.00;153862;1095;103243;-70
2021/05/30 03:35:17;;;;;;;4.23;3.60;;;;;;;9.90;67.39;100642.37;153789;1101;103195;-71
2021/05/30 03:38:22;;;;;;;9.83;3.90;;;;;;;9.88;67.11;100638.17;153944;1101;103172;-72
2021/05/30 03:41:31;;;;;;;6.00;3.90;;;;;;;9.83;66.99;100642.09;153823;1101;103225;-72
2021/05/30 03:44:34;;;;;;;4.45;3.60;;;;;;;9.79;67.12;100645.16;153927;1096;103267;-72
2021/05/30 03:47:38;;;;;;;6.30;3.95;;;;;;;9.82;66.87;100643.06;153833;1101;103221;-72
2021/05/30 03:50:42;;;;;;;5.17;3.80;;;;;;;9.84;67.10;100642.93;153826;1101;103221;-70
2021/05/30 03:53:45;;;;;;;5.53;3.80;;;;;;;9.88;68.02;100643.50;153817;1096;103103;-69
2021/05/30 03:56:49;;;;;;;6.07;4.00;;;;;;;9.88;67.98;100649.66;153811;1095;103130;-72
2021/05/30 03:59:53;;;;;;;5.57;3.93;;;;;;;9.91;67.10;100641.41;153957;1096;103208;-73
2021/05/30 04:02:56;;;;;;;4.30;3.57;;;;;;;9.93;67.72;100646.57;153960;1101;103224;-73
2021/05/30 04:06:00;;;;;;;5.23;4.00;;;;;;;9.94;67.61;100637.61;153975;1096;103248;-70
2021/05/30 04:09:04;;;;;;;5.17;4.07;;;;;;;9.90;67.76;100644.20;153795;1096;103195;-71
2021/05/30 04:12:09;;;;;;;5.70;3.97;;;;;;;9.90;67.60;100638.88;153873;1096;103138;-71
2021/05/30 04:15:15;;;;;;;7.95;4.15;;;;;;;9.92;67.62;100645.73;153914;1101;103207;-70
2021/05/30 04:18:24;;;;;;;4.70;3.65;;;;;;;10.03;68.05;100647.44;153831;1101;103570;-69
2021/05/30 04:21:28;;;;;;;4.50;3.87;;;;;;;10.20;68.22;100648.56;153755;1101;103232;-69
2021/05/30 04:24:32;;;;;;;7.07;3.93;;;;;;;10.40;68.35;100649.41;153797;1095;103337;-70
2021/05/30 04:27:36;;;;;;;4.93;4.20;;;;;;;10.65;68.34;100647.97;153824;1096;103195;-66
2021/05/30 04:30:40;;;;;;;4.97;4.47;;;;;;;10.95;68.01;100648.70;153870;1101;103223;-69
2021/05/30 04:33:44;;;;;;;4.67;4.17;;;;;;;11.28;68.32;100655.34;153843;1101;103131;-68
2021/05/30 04:36:48;;;;;;;7.80;4.20;;;;;;;11.44;67.30;100654.69;153831;1096;103130;-70
2021/05/30 04:39:51;;;;;;;5.50;3.93;;;;;;;11.52;67.68;100656.62;153841;1094;103103;-69
2021/05/30 04:42:55;;;;;;;8.07;3.57;;;;;;;11.43;67.87;100644.98;153815;1096;103219;-70
2021/05/30 04:45:59;;;;;;;4.20;3.33;;;;;;;11.54;67.52;100659.98;153824;1101;103393;-70
2021/05/30 04:49:03;;;;;;;4.73;3.83;;;;;;;11.65;67.22;100650.92;153852;1095;103485;-69
2021/05/30 04:52:08;;;;;;;5.30;4.00;;;;;;;11.74;67.20;100656.21;153855;1101;103099;-70
2021/05/30 04:55:13;;;;;;;5.47;3.93;;;;;;;11.87;67.40;100653.14;153822;1096;103128;-70
2021/05/30 04:58:17;;;;;;;5.30;4.17;;;;;;;11.90;66.54;100652.88;153959;1101;103585;-67
2021/05/30 05:01:20;;;;;;;5.53;3.97;;;;;;;11.94;67.13;100648.08;153808;1096;103139;-68
2021/05/30 05:04:24;;;;;;;5.10;4.23;;;;;;;12.06;66.32;100646.84;153875;1095;103470;-71
2021/05/30 05:07:28;;;;;;;5.63;4.07;;;;;;;12.04;66.27;100648.00;153860;1101;103123;-72
2021/05/30 05:10:32;;;;;;;5.67;4.47;;;;;;;11.88;66.19;100652.16;153862;1101;103105;-69
2021/05/30 05:13:35;;;;;;;5.40;4.60;;;;;;;12.00;67.37;100652.81;153846;1095;103205;-71
2021/05/30 05:16:39;;;;;;;4.67;3.83;;;;;;;12.27;66.65;100653.72;153829;1101;103237;-70
2021/05/30 05:19:43;;;;;;;4.13;3.43;;;;;;;12.56;66.16;100656.13;153917;1095;103301;-69
2021/05/30 05:22:46;;;;;;;5.05;3.80;;;;;;;12.80;65.79;100662.63;153905;1101;103125;-70
2021/05/30 05:25:51;;;;;;;4.40;3.90;;;;;;;12.97;65.59;100667.09;153911;1095;103157;-73
2021/05/30 05:28:55;;;;;;;4.80;3.47;;;;;;;13.18;65.26;100655.98;153936;1101;103189;-71
2021/05/30 05:31:58;;;;;;;3.60;3.30;;;;;;;13.27;65.10;100659.55;153813;1101;103250;-70
2021/05/30 05:35:02;;;;;;;4.67;3.70;;;;;;;13.40;64.81;100659.98;153896;1096;103139;-71
2021/05/30 05:38:05;;;;;;;4.17;3.60;;;;;;;13.58;64.67;100659.87;154201;1101;103144;-73
2021/05/30 05:41:09;;;;;;;4.23;3.67;;;;;;;13.78;63.58;100660.44;153978;1101;103474;-70
2021/05/30 05:44:13;;;;;;;5.23;3.50;;;;;;;13.97;64.06;100661.96;153828;1101;103141;-67
2021/05/30 05:47:16;;;;;;;5.57;3.43;;;;;;;14.27;63.78;100657.80;153804;1101;103650;-66
2021/05/30 05:50:23;;;;;;;3.50;3.20;;;;;;;14.44;63.76;100660.51;153866;1101;103148;-68
2021/05/30 05:53:26;;;;;;;4.30;3.13;;;;;;;14.49;63.15;100661.68;153852;1096;103212;-70
2021/05/30 05:56:30;;;;;;;3.50;3.17;;;;;;;14.50;63.56;100668.71;153836;1095;103142;-67
2021/05/30 05:59:33;;;;;;;3.63;2.97;;;;;;;14.38;62.80;100670.07;153865;1101;103220;-72
2021/05/30 06:02:37;;;;;;;3.33;3.03;;;;;;;14.29;63.17;100673.75;153623;1096;103266;-65
2021/05/30 06:05:41;;;;;;;3.93;2.90;;;;;;;14.28;63.52;100680.97;153787;1101;103547;-66
2021/05/30 06:08:45;;;;;;;4.00;2.85;;;;;;;14.22;61.89;100686.16;153836;1101;103129;-66
2021/05/30 06:11:49;;;;;;;4.23;3.20;;;;;;;14.23;63.12;100687.84;153797;1096;103143;-66
2021/05/30 06:14:52;;;;;;;4.60;3.90;;;;;;;14.14;63.05;100690.53;153811;1101;103121;-66
2021/05/30 06:17:58;;;;;;;5.23;3.27;;;;;;;14.25;63.28;100683.15;153776;1101;103348;-66
2021/05/30 06:21:02;;;;;;;4.35;3.75;;;;;;;14.40;62.94;100675.28;153883;1101;103604;-69
2021/05/30 06:24:07;;;;;;;4.00;3.50;;;;;;;14.41;62.89;100688.51;153837;1095;103221;-66
2021/05/30 06:27:10;;;;;;;28.23;21.67;;;;;;;14.42;62.92;100687.52;153826;1101;103103;-66
2021/05/30 06:30:18;;;;;;;6.33;4.53;;;;;;;14.39;60.47;100682.47;154031;1096;103259;-70
2021/05/30 06:33:21;;;;;;;4.30;2.97;;;;;;;14.23;62.18;100691.36;153970;1101;103249;-67
2021/05/30 06:36:25;;;;;;;3.37;3.07;;;;;;;14.26;62.10;100690.17;153839;1101;103208;-63
2021/05/30 06:39:29;;;;;;;3.57;3.13;;;;;;;14.25;62.45;100688.52;153798;1101;103119;-66
2021/05/30 06:42:33;;;;;;;6.00;5.40;;;;;;;14.11;62.02;100693.53;153821;1101;103103;-63
2021/05/30 06:45:36;;;;;;;8.90;7.87;;;;;;;14.06;62.39;100698.54;153848;1096;103519;-69
2021/05/30 06:48:40;;;;;;;10.35;9.25;;;;;;;13.98;62.13;100711.95;153795;1094;103097;-72
2021/05/30 06:51:44;;;;;;;6.37;4.80;;;;;;;13.99;61.82;100702.91;153976;1095;103243;-68
2021/05/30 06:54:48;;;;;;;6.43;5.03;;;;;;;13.91;62.08;100708.23;153835;1096;103141;-69
2021/05/30 06:57:52;;;;;;;4.87;4.47;;;;;;;13.92;61.90;100712.61;153797;1102;103279;-68
2021/05/30 07:00:56;;;;;;;7.20;5.97;;;;;;;13.91;61.81;100708.23;153870;1101;103225;-70
2021/05/30 07:03:59;;;;;;;4.33;3.70;;;;;;;13.98;61.71;100709.27;153802;1101;103213;-73
2021/05/30 07:07:03;;;;;;;11.87;9.57;;;;;;;14.00;61.82;100701.89;153940;1101;103142;-69
2021/05/30 07:10:11;;;;;;;27.07;22.77;;;;;;;14.13;61.63;100704.94;153842;1096;103043;-67
2021/05/30 07:13:14;;;;;;;6.97;4.50;;;;;;;14.10;61.77;100715.16;153842;1096;103126;-74
2021/05/30 07:16:18;;;;;;;4.50;3.70;;;;;;;14.30;61.72;100708.48;153842;1101;103215;-66
2021/05/30 07:19:22;;;;;;;12.77;11.47;;;;;;;14.39;61.73;100709.31;153850;1101;103360;-67
2021/05/30 07:22:26;;;;;;;13.40;12.00;;;;;;;14.51;62.12;100704.45;153971;1101;103109;-68
2021/05/30 07:25:29;;;;;;;11.80;10.40;;;;;;;14.69;60.89;100715.08;153694;1101;103123;-69
2021/05/30 07:28:34;;;;;;;8.20;7.03;;;;;;;14.69;60.82;100720.45;153745;1101;103222;-68
2021/05/30 07:31:38;;;;;;;8.63;6.57;;;;;;;14.75;60.94;100714.39;153826;1101;103113;-70
2021/05/30 07:34:42;;;;;;;4.77;4.30;;;;;;;14.68;59.88;100718.75;153823;1101;103171;-68
2021/05/30 07:37:45;;;;;;;6.83;5.23;;;;;;;14.79;60.54;100715.73;153813;1096;103500;-69
2021/05/30 07:40:50;;;;;;;4.43;4.03;;;;;;;14.96;61.08;100716.55;153853;1101;103222;-66
2021/05/30 07:43:54;;;;;;;3.87;3.43;;;;;;;15.00;60.25;100708.99;153911;1101;103113;-68
2021/05/30 07:46:58;;;;;;;8.20;7.40;;;;;;;15.06;60.91;100717.20;153879;1096;103123;-67
2021/05/30 07:50:01;;;;;;;8.67;7.17;;;;;;;15.27;60.83;100713.95;153839;1101;103245;-68
2021/05/30 07:53:05;;;;;;;3.90;3.60;;;;;;;15.39;59.61;100710.90;153868;1096;103186;-68
2021/05/30 07:56:09;;;;;;;4.83;4.37;;;;;;;15.42;59.36;100721.32;153858;1095;103132;-68
2021/05/30 07:59:13;;;;;;;5.70;4.87;;;;;;;15.59;59.69;100714.86;153884;1101;103103;-68
2021/05/30 08:02:17;;;;;;;3.60;3.30;;;;;;;15.76;59.97;100710.28;153865;1095;103216;-68
2021/05/30 08:05:21;;;;;;;6.63;5.30;;;;;;;15.97;59.38;100716.88;153971;1096;103217;-66
2021/05/30 08:08:25;;;;;;;3.77;3.37;;;;;;;16.00;57.58;100721.92;153870;1101;103229;-68
2021/05/30 08:11:29;;;;;;;4.97;3.63;;;;;;;16.03;58.89;100713.47;153847;1101;103269;-68
2021/05/30 08:14:33;;;;;;;4.17;3.57;;;;;;;16.05;58.81;100709.61;153948;1096;103144;-68
2021/05/30 08:17:37;;;;;;;3.83;3.13;;;;;;;15.90;57.22;100709.52;153839;1096;103113;-69
2021/05/30 08:20:41;;;;;;;4.10;3.70;;;;;;;15.88;58.02;100716.11;153883;1101;103299;-68
2021/05/30 08:23:46;;;;;;;3.80;3.50;;;;;;;15.79;56.89;100717.98;153883;1095;103579;-68
2021/05/30 08:26:51;;;;;;;4.53;3.73;;;;;;;15.82;59.13;100703.33;153846;1096;103219;-68
2021/05/30 08:29:54;;;;;;;4.23;3.57;;;;;;;15.97;58.55;100716.88;153945;1101;103134;-68
2021/05/30 08:32:58;;;;;;;6.60;4.90;;;;;;;16.05;59.01;100706.06;153786;1101;103109;-68
2021/05/30 08:36:02;;;;;;;5.40;4.43;;;;;;;16.16;58.14;100720.98;153820;1095;103282;-69
2021/05/30 08:39:07;;;;;;;5.53;4.30;;;;;;;16.32;58.17;100711.94;153916;1096;103128;-68
2021/05/30 08:42:11;;;;;;;5.57;3.83;;;;;;;16.40;58.37;100718.12;153873;1096;103216;-68
2021/05/30 08:45:16;;;;;;;4.73;4.23;;;;;;;16.59;58.05;100716.80;153818;1101;103221;-68
2021/05/30 08:48:20;;;;;;;6.17;5.43;;;;;;;16.84;57.63;100714.75;153889;1101;103176;-68
2021/05/30 08:51:24;;;;;;;6.33;4.17;;;;;;;16.68;55.53;100728.33;153762;1096;103187;-68
2021/05/30 08:54:31;;;;;;;4.93;4.43;;;;;;;16.69;56.65;100720.06;153872;1095;103231;-68
2021/05/30 08:57:35;;;;;;;5.30;4.17;;;;;;;16.73;55.25;100712.46;153826;1096;103105;-68
2021/05/30 09:00:39;;;;;;;7.30;5.07;;;;;;;16.71;56.63;100716.37;153938;1096;103250;-69
2021/05/30 09:03:54;;;;;;;4.77;4.13;;;;;;;16.73;54.97;100719.72;153846;1095;103250;-69
2021/05/30 09:06:57;;;;;;;3.80;3.37;;;;;;;16.78;56.74;100726.23;153844;1095;103230;-68
2021/05/30 09:10:07;;;;;;;6.23;5.60;;;;;;;16.68;56.06;100722.94;153963;1096;103193;-68
2021/05/30 09:13:14;;;;;;;4.53;3.53;;;;;;;16.53;55.37;100727.44;153937;1101;103213;-69
2021/05/30 09:16:21;;;;;;;3.95;3.55;;;;;;;16.49;56.19;100722.43;153818;1101;103093;-68
2021/05/30 09:19:49;;;;;;;5.90;5.20;;;;;;;16.68;56.60;100723.77;153886;1096;103186;-68
2021/05/30 09:22:53;;;;;;;8.77;7.63;;;;;;;16.86;54.86;100725.36;153887;1101;103313;-68
2021/05/30 09:26:09;;;;;;;7.87;7.07;;;;;;;16.83;55.40;100718.45;153937;1101;103118;-68
2021/05/30 09:29:13;;;;;;;5.80;5.20;;;;;;;16.81;55.83;100716.94;153855;1096;103136;-69
2021/05/30 09:32:17;;;;;;;4.17;3.77;;;;;;;16.90;55.33;100720.41;153831;1101;103224;-68
2021/05/30 09:35:21;;;;;;;5.10;4.23;;;;;;;16.84;54.37;100732.76;153842;1101;103218;-69
2021/05/30 09:38:32;;;;;;;4.30;3.90;;;;;;;16.93;56.05;100714.66;153843;1096;103269;-68
2021/05/30 09:41:36;;;;;;;4.50;4.10;;;;;;;17.01;55.65;100715.44;153881;1096;103153;-68
2021/05/30 09:44:39;;;;;;;10.97;9.47;;;;;;;17.00;55.25;100721.84;153857;1096;103165;-68
2021/05/30 09:47:45;;;;;;;4.80;4.30;;;;;;;17.24;54.08;100712.66;153889;1101;103125;-69
2021/05/30 09:51:03;;;;;;;15.63;14.10;;;;;;;17.30;54.28;100715.62;153863;1101;103135;-68
2021/05/30 09:54:10;;;;;;;4.40;4.00;;;;;;;17.16;53.96;100711.91;153827;1101;103206;-68
2021/05/30 09:57:14;;;;;;;5.87;5.10;;;;;;;17.34;54.15;100708.83;153827;1101;103125;-68
2021/05/30 10:00:23;;;;;;;5.03;4.13;;;;;;;17.39;53.40;100706.42;153803;1101;103192;-68
2021/05/30 10:03:27;;;;;;;4.70;3.40;;;;;;;17.31;53.96;100707.34;153850;1096;103101;-68
2021/05/30 10:06:32;;;;;;;8.70;6.83;;;;;;;17.53;54.58;100696.63;153858;1095;103141;-68
2021/05/30 10:09:35;;;;;;;3.40;2.70;;;;;;;17.80;54.17;100705.89;153815;1101;103187;-69
2021/05/30 10:12:39;;;;;;;5.27;4.47;;;;;;;18.13;51.42;100691.95;153875;1096;103798;-68
2021/05/30 10:15:43;;;;;;;10.10;8.77;;;;;;;18.48;52.89;100697.51;153981;1101;103218;-68
2021/05/30 10:18:51;;;;;;;9.97;8.70;;;;;;;18.88;53.03;100695.99;153878;1101;103145;-70
2021/05/30 10:21:58;;;;;;;12.10;9.65;;;;;;;18.62;50.28;100700.11;153964;1096;103115;-68
2021/05/30 10:25:01;;;;;;;17.30;14.27;;;;;;;18.10;50.09;100700.45;153959;1096;103244;-67
2021/05/30 10:28:10;;;;;;;6.53;4.83;;;;;;;17.92;51.37;100699.02;153900;1101;103125;-68
2021/05/30 10:31:23;;;;;;;4.05;2.50;;;;;;;17.85;50.99;100692.70;153849;1101;103192;-69
2021/05/30 10:34:26;;;;;;;19.10;10.85;;;;;;;17.87;51.17;100700.62;153879;1101;103197;-68
2021/05/30 10:37:30;;;;;;;7.50;4.93;;;;;;;17.80;50.28;100700.49;154014;1096;103126;-69
2021/05/30 10:40:36;;;;;;;3.30;2.30;;;;;;;17.58;50.52;100695.05;153880;1101;103203;-73
2021/05/30 10:43:39;;;;;;;2.43;2.20;;;;;;;17.57;51.29;100703.32;153943;1101;103564;-67
2021/05/30 10:46:51;;;;;;;2.70;2.40;;;;;;;17.54;49.96;100701.02;154107;1101;103125;-67
2021/05/30 10:50:14;;;;;;;2.43;2.00;;;;;;;17.50;50.49;100700.55;153975;1096;103564;-68
2021/05/30 10:53:32;;;;;;;2.73;2.07;;;;;;;17.42;49.71;100704.19;154534;1101;103122;-69
2021/05/30 10:56:39;;;;;;;3.00;1.80;;;;;;;17.40;48.81;100716.20;153940;1101;103217;-70
2021/05/30 10:59:42;;;;;;;3.25;1.95;;;;;;;17.38;49.03;100710.13;153897;1095;103125;-67
2021/05/30 11:03:10;;;;;;;4.20;2.10;;;;;;;17.34;48.62;100714.22;154048;1096;103217;-73
2021/05/30 11:06:43;;;;;;;4.47;2.37;;;;;;;17.32;50.10;100714.44;153960;1096;103136;-64
2021/05/30 11:10:18;;;;;;;11.20;8.77;;;;;;;17.40;51.11;100708.94;153940;1101;103237;-65
2021/05/30 11:13:22;;;;;;;4.43;3.00;;;;;;;17.46;49.47;100715.45;153856;1101;103217;-64
2021/05/30 11:16:27;;;;;;;2.70;2.17;;;;;;;17.40;49.90;100708.10;153882;1101;103101;-65
2021/05/30 11:19:31;;;;;;;2.43;1.87;;;;;;;17.40;50.13;100710.80;153865;1101;103096;-65
2021/05/30 11:22:42;;;;;;;2.15;1.90;;;;;;;17.46;48.55;100710.05;154036;1095;103176;-70
2021/05/30 11:25:49;;;;;;;3.20;2.30;;;;;;;17.48;49.41;100712.56;154289;1101;103124;-71
2021/05/30 11:28:52;;;;;;;2.27;2.00;;;;;;;17.41;47.96;100707.06;154877;1101;103170;-71
2021/05/30 11:31:57;;;;;;;2.30;2.10;;;;;;;17.43;48.69;100705.84;153893;1101;103125;-70
2021/05/30 11:35:01;;;;;;;2.93;2.20;;;;;;;17.54;49.20;100706.41;153953;1095;103193;-68
2021/05/30 11:38:05;;;;;;;3.43;2.20;;;;;;;17.63;48.63;100719.61;153873;1096;103104;-68
2021/05/30 11:41:15;;;;;;;3.57;2.00;;;;;;;17.75;49.52;100713.73;153868;1101;103262;-70
2021/05/30 11:44:20;;;;;;;3.37;1.97;;;;;;;17.97;46.19;100714.64;154052;1101;103570;-68
2021/05/30 11:47:24;;;;;;;3.30;2.00;;;;;;;18.11;47.73;100705.67;153857;1101;103480;-77
2021/05/30 11:50:38;;;;;;;2.50;1.90;;;;;;;18.28;48.66;100706.23;154010;1096;103192;-65
2021/05/30 11:53:42;;;;;;;2.40;1.90;;;;;;;18.43;47.11;100707.00;153819;1101;103209;-68
2021/05/30 11:56:47;;;;;;;2.30;1.85;;;;;;;18.65;45.35;100707.02;153827;1101;103259;-69
2021/05/30 11:59:56;;;;;;;2.00;1.80;;;;;;;18.67;46.31;100704.95;153789;1096;103308;-68
2021/05/30 12:03:09;;;;;;;2.20;2.00;;;;;;;18.78;46.61;100704.42;153889;1095;103191;-68
2021/05/30 12:06:12;;;;;;;2.67;1.67;;;;;;;18.89;45.78;100702.23;153948;1096;103195;-68
2021/05/30 12:09:16;;;;;;;2.93;1.80;;;;;;;18.72;46.63;100699.77;153920;1096;103187;-70
2021/05/30 12:12:35;;;;;;;3.00;2.40;;;;;;;18.54;47.38;100712.94;153805;1095;103132;-69
2021/05/30 12:15:41;;;;;;;2.00;1.80;;;;;;;18.41;47.11;100724.45;153842;1101;103352;-69
2021/05/30 12:18:57;;;;;;;2.53;1.60;;;;;;;18.27;45.16;100712.69;153886;1101;103219;-70
2021/05/30 12:22:01;;;;;;;1.90;1.50;;;;;;;18.31;46.94;100713.97;153820;1096;103195;-69
2021/05/30 12:25:10;;;;;;;1.77;1.43;;;;;;;18.44;45.04;100716.80;153829;1101;103153;-69
2021/05/30 12:28:14;;;;;;;2.43;1.50;;;;;;;18.47;44.81;100720.14;153904;1096;103230;-69
2021/05/30 12:31:20;;;;;;;3.00;1.50;;;;;;;18.42;46.48;100718.86;153815;1095;103304;-69
2021/05/30 12:34:36;;;;;;;2.17;1.40;;;;;;;18.44;46.62;100719.50;154228;1101;103190;-72
2021/05/30 12:37:41;;;;;;;1.80;1.70;;;;;;;18.41;46.33;100719.88;154088;1101;103150;-71
2021/05/30 12:40:46;;;;;;;1.73;1.60;;;;;;;18.35;45.30;100715.25;153991;1096;103222;-71
2021/05/30 12:43:49;;;;;;;3.23;1.90;;;;;;;18.41;46.35;100717.17;154065;1101;103121;-70
2021/05/30 12:46:59;;;;;;;3.17;2.10;;;;;;;18.49;46.22;100720.78;153820;1101;103302;-71
2021/05/30 12:50:05;;;;;;;1.53;1.40;;;;;;;18.49;45.44;100716.20;154284;1095;103190;-70
2021/05/30 12:53:09;;;;;;;2.25;1.35;;;;;;;18.44;45.37;100714.09;153781;1101;103490;-70
2021/05/30 12:56:24;;;;;;;1.80;1.43;;;;;;;18.49;45.90;100709.97;153823;1101;103147;-71
2021/05/30 12:59:31;;;;;;;1.50;1.40;;;;;;;18.58;46.07;100703.41;153848;1096;103127;-71
2021/05/30 13:02:35;;;;;;;1.80;1.40;;;;;;;18.60;46.02;100717.56;153839;1101;103499;-71
2021/05/30 13:05:40;;;;;;;1.60;1.50;;;;;;;18.35;44.81;100714.42;153819;1096;103197;-67
2021/05/30 13:08:44;;;;;;;2.67;2.00;;;;;;;18.12;46.01;100710.03;153820;1101;103197;-67
2021/05/30 13:11:48;;;;;;;2.80;1.70;;;;;;;18.12;46.32;100703.80;153805;1101;103233;-65
2021/05/30 13:15:18;;;;;;;3.40;3.10;;;;;;;17.99;45.90;100715.28;153953;1095;103144;-69
2021/05/30 13:18:22;;;;;;;2.83;1.93;;;;;;;17.83;46.63;100716.32;153777;1095;103230;-69
2021/05/30 13:21:28;;;;;;;2.10;1.80;;;;;;;17.79;46.60;100709.63;153794;1096;103583;-69
2021/05/30 13:24:39;;;;;;;2.75;1.70;;;;;;;17.82;46.90;100720.03;153798;1101;103195;-70
2021/05/30 13:27:43;;;;;;;3.80;3.15;;;;;;;17.77;47.26;100722.48;153947;1101;103261;-71
2021/05/30 13:30:48;;;;;;;6.73;4.17;;;;;;;17.75;47.12;100719.14;154008;1095;103192;-70
2021/05/30 13:33:54;;;;;;;4.60;2.83;;;;;;;17.63;47.23;100711.52;153823;1094;103467;-69
2021/05/30 13:36:58;;;;;;;2.40;2.20;;;;;;;17.63;47.61;100716.09;153836;1101;103201;-70
2021/05/30 13:40:03;;;;;;;4.13;2.00;;;;;;;17.64;47.65;100710.48;153973;1096;103611;-70
2021/05/30 13:43:07;;;;;;;2.40;2.00;;;;;;;17.72;47.84;100706.01;153939;1101;103152;-70
2021/05/30 13:46:11;;;;;;;2.60;2.00;;;;;;;17.76;47.65;100708.13;153777;1101;103224;-70
2021/05/30 13:49:15;;;;;;;3.57;1.73;;;;;;;17.80;47.03;100708.59;153836;1095;103295;-71
2021/05/30 13:52:18;;;;;;;2.67;1.50;;;;;;;17.72;45.63;100714.10;153994;1095;103184;-70
2021/05/30 13:55:22;;;;;;;3.70;2.33;;;;;;;17.64;46.36;100715.88;153931;1096;103117;-71
2021/05/30 13:58:26;;;;;;;3.47;1.77;;;;;;;17.73;46.48;100716.62;154017;1101;103222;-71
2021/05/30 14:01:30;;;;;;;3.75;3.25;;;;;;;17.85;46.59;100714.30;154014;1095;103119;-72
2021/05/30 14:04:33;;;;;;;4.57;2.60;;;;;;;17.89;46.76;100712.89;153965;1101;103221;-72
2021/05/30 14:07:37;;;;;;;2.60;2.20;;;;;;;18.07;46.68;100703.53;154069;1096;103132;-78